Time;durP1;ratioP1;P1;durP2;ratioP2;P2;SDS_P1;SDS_P2;PMS_P1;PMS_P2;Temp;Humidity;BMP_temperature;BMP_pressure;BME280_temperature;BME280_humidity;BME280_pressure;Samples;Min_cycle;Max_cycle;Signal;HPM_P1;HPM_P2
2024/01/29 00:02:06;;;;;;;8.00;5.57;;;4.90;99.90;;;;;;4865589;29;20081;-78
2024/01/29 00:04:34;;;;;;;10.07;5.68;;;4.80;99.90;;;;;;4865622;29;20170;-78
2024/01/29 00:07:00;;;;;;;11.18;5.80;;;4.80;99.90;;;;;;4865750;29;20045;-78
2024/01/29 00:09:25;;;;;;;11.70;7.20;;;4.80;99.90;;;;;;4865545;29;20049;-78
2024/01/29 00:11:52;;;;;;;8.90;5.55;;;4.70;99.90;;;;;;4865563;29;20060;-78
2024/01/29 00:14:18;;;;;;;8.35;5.43;;;4.70;99.90;;;;;;4865600;29;20517;-78
2024/01/29 00:16:45;;;;;;;10.05;6.57;;;4.70;99.90;;;;;;4865511;29;20060;-78
2024/01/29 00:19:11;;;;;;;9.13;5.82;;;4.70;99.90;;;;;;4865734;29;20055;-78
2024/01/29 00:21:37;;;;;;;8.93;5.90;;;4.70;99.90;;;;;;4882267;29;20398;-78
2024/01/29 00:24:02;;;;;;;10.48;6.13;;;4.70;99.90;;;;;;4865267;29;20139;-78
2024/01/29 00:26:28;;;;;;;10.73;5.65;;;4.70;99.90;;;;;;4865471;29;20496;-78
2024/01/29 00:28:54;;;;;;;8.20;5.55;;;4.70;99.90;;;;;;4865093;29;20049;-78
2024/01/29 00:31:22;;;;;;;8.10;5.05;;;4.60;99.90;;;;;;4865476;29;20481;-78
2024/01/29 00:33:48;;;;;;;10.35;5.55;;;4.60;99.90;;;;;;4865094;29;20060;-78
2024/01/29 00:36:14;;;;;;;8.90;6.05;;;4.60;99.90;;;;;;4865276;29;20062;-78
2024/01/29 00:38:40;;;;;;;10.65;5.68;;;4.60;99.90;;;;;;4865002;29;20053;-79
2024/01/29 00:41:06;;;;;;;8.98;6.07;;;4.60;99.90;;;;;;4881948;29;20100;-78
2024/01/29 00:43:32;;;;;;;8.30;5.50;;;4.50;99.90;;;;;;4864964;29;20139;-79
2024/01/29 00:45:58;;;;;;;8.60;5.80;;;4.50;99.90;;;;;;4865014;29;20082;-79
2024/01/29 00:48:25;;;;;;;9.50;5.25;;;4.40;99.90;;;;;;4864992;29;20081;-78
2024/01/29 00:50:51;;;;;;;11.07;5.90;;;4.40;99.90;;;;;;4865220;29;20136;-79
2024/01/29 00:53:17;;;;;;;10.85;5.88;;;4.40;99.90;;;;;;4864964;29;20170;-79
2024/01/29 00:55:46;;;;;;;9.98;5.05;;;4.40;99.90;;;;;;4865337;29;20128;-78
2024/01/29 00:58:15;;;;;;;9.25;5.95;;;4.50;99.90;;;;;;4881574;29;20055;-79
2024/01/29 01:00:43;;;;;;;8.10;5.10;;;4.40;99.90;;;;;;4864657;29;20063;-78
2024/01/29 01:03:10;;;;;;;9.30;5.60;;;4.40;99.90;;;;;;4864924;29;20136;-79
2024/01/29 01:05:36;;;;;;;10.13;5.88;;;4.40;99.90;;;;;;4864687;29;20053;-79
2024/01/29 01:08:03;;;;;;;8.90;5.93;;;4.50;99.90;;;;;;4864815;29;20132;-78
2024/01/29 01:10:29;;;;;;;11.95;6.25;;;4.40;99.90;;;;;;4864570;29;20363;-79
2024/01/29 01:12:55;;;;;;;11.35;5.97;;;4.50;99.90;;;;;;4864377;29;20549;-78
2024/01/29 01:15:20;;;;;;;10.27;5.28;;;4.50;99.90;;;;;;4864561;29;20049;-78
2024/01/29 01:17:46;;;;;;;7.97;5.03;;;4.60;99.90;;;;;;4864715;29;20131;-78
2024/01/29 01:20:12;;;;;;;8.57;5.93;;;4.60;99.90;;;;;;4864478;29;20097;-78
2024/01/29 01:22:38;;;;;;;11.65;6.30;;;4.60;99.90;;;;;;4864448;29;20078;-79
2024/01/29 01:25:05;;;;;;;11.18;6.82;;;4.60;99.90;;;;;;4864351;29;20049;-78
2024/01/29 01:27:37;;;;;;;10.65;5.88;;;4.60;99.90;;;;;;4865089;29;20068;-79
2024/01/29 01:30:03;;;;;;;9.10;5.88;;;4.50;99.90;;;;;;4864558;29;20044;-79
2024/01/29 01:32:29;;;;;;;9.32;5.72;;;4.50;99.90;;;;;;4864284;29;20045;-78
2024/01/29 01:34:57;;;;;;;10.18;6.15;;;4.50;99.90;;;;;;4864574;29;20048;-78
2024/01/29 01:37:25;;;;;;;9.50;5.80;;;4.50;99.90;;;;;;4863987;29;20105;-78
2024/01/29 01:39:52;;;;;;;10.13;6.18;;;4.50;99.90;;;;;;4864031;29;20104;-79
2024/01/29 01:42:21;;;;;;;10.40;5.93;;;4.50;99.90;;;;;;4864275;29;20041;-78
2024/01/29 01:44:47;;;;;;;9.80;6.35;;;4.50;99.90;;;;;;4864086;29;20103;-78
2024/01/29 01:47:14;;;;;;;11.02;7.30;;;4.50;99.90;;;;;;4864044;29;20060;-78
2024/01/29 01:49:40;;;;;;;10.15;5.68;;;4.40;99.90;;;;;;4864235;29;20124;-79
2024/01/29 01:52:06;;;;;;;9.50;5.45;;;4.40;99.90;;;;;;4863964;29;20091;-78
2024/01/29 01:54:33;;;;;;;11.27;6.30;;;4.40;99.90;;;;;;4863748;29;20053;-78
2024/01/29 01:56:59;;;;;;;13.18;6.75;;;4.40;99.90;;;;;;4879897;29;20144;-78
2024/01/29 01:59:25;;;;;;;9.80;6.10;;;4.30;99.90;;;;;;4863742;29;20128;-78
2024/01/29 02:01:55;;;;;;;10.43;6.20;;;4.30;99.90;;;;;;4863671;29;20060;-79
2024/01/29 02:04:21;;;;;;;9.93;5.90;;;4.20;99.90;;;;;;4880380;29;20131;-78
2024/01/29 02:06:47;;;;;;;9.90;6.43;;;4.20;99.90;;;;;;4863968;29;20132;-78
2024/01/29 02:09:13;;;;;;;12.65;6.07;;;4.20;99.90;;;;;;4880037;29;20076;-78
2024/01/29 02:11:41;;;;;;;14.48;6.35;;;4.10;99.90;;;;;;4880070;29;20559;-79
2024/01/29 02:14:10;;;;;;;9.52;5.95;;;4.20;99.90;;;;;;4863514;29;20533;-78
2024/01/29 02:16:35;;;;;;;11.80;7.20;;;4.20;99.90;;;;;;4863470;29;20049;-78
2024/01/29 02:19:08;;;;;;;10.20;6.47;;;4.20;99.90;;;;;;4863359;29;20135;-79
2024/01/29 02:21:33;;;;;;;13.43;8.20;;;4.20;99.90;;;;;;4863633;29;20513;-79
2024/01/29 02:23:59;;;;;;;10.27;6.43;;;4.20;99.90;;;;;;4863294;29;20049;-79
2024/01/29 02:26:25;;;;;;;10.40;6.10;;;4.20;99.90;;;;;;4863548;29;20193;-79
2024/01/29 02:28:50;;;;;;;13.43;7.07;;;4.20;99.90;;;;;;4863334;29;20485;-78
2024/01/29 02:31:16;;;;;;;11.55;7.15;;;4.20;99.90;;;;;;4863510;29;20045;-78
2024/01/29 02:33:42;;;;;;;11.07;6.63;;;4.20;99.90;;;;;;4863269;29;20470;-78
2024/01/29 02:36:07;;;;;;;10.05;6.13;;;4.20;99.90;;;;;;4847845;29;20037;-78
2024/01/29 02:38:34;;;;;;;12.20;6.47;;;4.20;99.90;;;;;;4863256;29;20057;-78
2024/01/29 02:40:59;;;;;;;13.15;7.15;;;4.10;99.90;;;;;;4863177;29;20124;-78
2024/01/29 02:43:25;;;;;;;11.02;6.25;;;4.10;99.90;;;;;;4863259;29;20181;-78
2024/01/29 02:45:51;;;;;;;9.98;6.68;;;4.10;99.90;;;;;;4863147;29;20101;-79
2024/01/29 02:48:17;;;;;;;13.18;7.85;;;4.10;99.90;;;;;;4863401;29;20057;-78
2024/01/29 02:50:46;;;;;;;9.82;6.70;;;4.00;99.90;;;;;;4879737;29;20045;-78
2024/01/29 02:53:11;;;;;;;11.75;6.72;;;4.00;99.90;;;;;;4879702;29;20493;-78
2024/01/29 02:55:37;;;;;;;9.48;6.00;;;4.00;99.90;;;;;;4879822;29;20041;-78
2024/01/29 02:58:03;;;;;;;11.15;7.13;;;3.90;99.90;;;;;;4862985;29;20041;-78
2024/01/29 03:00:30;;;;;;;11.40;6.78;;;3.90;99.90;;;;;;4879720;29;20045;-78
2024/01/29 03:02:57;;;;;;;11.75;7.15;;;3.90;99.90;;;;;;4879615;29;20132;-79
2024/01/29 03:05:23;;;;;;;11.90;6.90;;;3.90;99.90;;;;;;4862880;29;20088;-78
2024/01/29 03:07:48;;;;;;;13.68;7.03;;;3.90;99.90;;;;;;4879692;29;20092;-78
2024/01/29 03:10:14;;;;;;;13.35;7.22;;;3.80;99.90;;;;;;4862891;29;20056;-78
2024/01/29 03:12:40;;;;;;;10.32;6.97;;;3.80;99.90;;;;;;4862776;29;20068;-79
2024/01/29 03:15:06;;;;;;;9.02;6.40;;;3.80;99.90;;;;;;4862932;29;20212;-79
2024/01/29 03:17:32;;;;;;;12.55;6.32;;;3.80;99.90;;;;;;4862835;29;20239;-79
2024/01/29 03:19:57;;;;;;;10.38;6.50;;;3.80;99.90;;;;;;4862767;29;20132;-79
2024/01/29 03:22:23;;;;;;;11.70;6.82;;;3.80;99.90;;;;;;4866240;29;20049;-79
2024/01/29 03:24:51;;;;;;;9.25;6.60;;;3.70;99.90;;;;;;4883494;29;20049;-78
2024/01/29 03:27:17;;;;;;;13.10;7.32;;;3.70;99.90;;;;;;4866682;29;20136;-79
2024/01/29 03:29:42;;;;;;;11.50;7.35;;;3.70;99.90;;;;;;4866368;29;20132;-78
2024/01/29 03:32:09;;;;;;;11.13;7.07;;;3.70;99.90;;;;;;4866322;29;20084;-78
2024/01/29 03:34:35;;;;;;;13.02;7.05;;;3.70;99.90;;;;;;4866515;29;20405;-78
2024/01/29 03:37:00;;;;;;;11.38;6.97;;;3.70;99.90;;;;;;4866266;29;20055;-78
2024/01/29 03:39:26;;;;;;;9.65;6.97;;;3.60;99.90;;;;;;4883039;29;20044;-78
2024/01/29 03:41:51;;;;;;;10.90;6.72;;;3.60;99.90;;;;;;4866291;29;20045;-79
2024/01/29 03:44:17;;;;;;;11.07;7.28;;;3.60;99.90;;;;;;4866488;29;20055;-79
2024/01/29 03:46:43;;;;;;;10.63;6.53;;;3.60;99.90;;;;;;4866171;29;20408;-79
2024/01/29 03:49:08;;;;;;;12.82;7.28;;;3.60;99.90;;;;;;4865889;29;20045;-79
2024/01/29 03:51:34;;;;;;;12.88;6.57;;;3.60;99.90;;;;;;4866034;29;20055;-78
2024/01/29 03:54:00;;;;;;;10.68;5.95;;;3.60;99.90;;;;;;4866268;29;20085;-78
2024/01/29 03:56:26;;;;;;;13.57;7.22;;;3.50;99.90;;;;;;4866044;29;20049;-78
2024/01/29 03:58:51;;;;;;;13.30;7.28;;;3.50;99.90;;;;;;4866113;29;20045;-78
2024/01/29 04:01:27;;;;;;;11.80;7.65;;;3.50;99.90;;;;;;4866019;29;20504;-78
2024/01/29 04:03:53;;;;;;;12.63;7.10;;;3.50;99.90;;;;;;4865890;29;20049;-78
2024/01/29 04:06:19;;;;;;;14.93;7.22;;;3.40;99.90;;;;;;4865974;29;20537;-78
2024/01/29 04:08:44;;;;;;;11.50;7.22;;;3.40;99.90;;;;;;4865941;29;20442;-78
2024/01/29 04:11:11;;;;;;;12.05;7.20;;;3.40;99.90;;;;;;4865764;29;20065;-78
2024/01/29 04:13:39;;;;;;;13.10;7.45;;;3.40;99.90;;;;;;4865615;29;20113;-78
2024/01/29 04:16:08;;;;;;;11.45;7.00;;;3.40;99.90;;;;;;4865815;29;20060;-78
2024/01/29 04:18:33;;;;;;;12.40;7.32;;;3.40;99.90;;;;;;4865489;29;20055;-78
2024/01/29 04:20:59;;;;;;;14.77;8.00;;;3.40;99.90;;;;;;4865592;29;20045;-78
2024/01/29 04:23:25;;;;;;;13.63;7.90;;;3.30;99.90;;;;;;4865492;29;20052;-78
2024/01/29 04:25:50;;;;;;;13.90;7.57;;;3.30;99.90;;;;;;4865378;29;20044;-78
2024/01/29 04:28:16;;;;;;;13.00;6.97;;;3.30;99.90;;;;;;4865711;29;20120;-78
2024/01/29 04:30:42;;;;;;;11.52;7.72;;;3.40;99.90;;;;;;4865227;29;21057;-78
2024/01/29 04:33:08;;;;;;;14.88;8.52;;;3.40;99.90;;;;;;4863756;29;20049;-78
2024/01/29 04:35:35;;;;;;;14.13;8.35;;;3.40;99.90;;;;;;4865521;29;20053;-78
2024/01/29 04:38:00;;;;;;;11.82;7.50;;;3.40;99.90;;;;;;4865251;29;20611;-79
2024/01/29 04:40:26;;;;;;;12.02;8.70;;;3.40;99.90;;;;;;4881948;29;20049;-78
2024/01/29 04:42:55;;;;;;;11.40;7.78;;;3.50;99.90;;;;;;4865397;29;20064;-78
2024/01/29 04:45:21;;;;;;;12.73;7.47;;;3.50;99.90;;;;;;4865003;29;20136;-78
2024/01/29 04:47:47;;;;;;;12.65;8.13;;;3.50;99.90;;;;;;4881894;29;20120;-79
2024/01/29 04:50:15;;;;;;;11.98;7.78;;;3.60;99.90;;;;;;4865177;29;20056;-78
2024/01/29 04:52:41;;;;;;;12.65;8.18;;;3.50;99.90;;;;;;4865087;29;20045;-78
2024/01/29 04:55:07;;;;;;;11.63;7.78;;;3.50;99.90;;;;;;4865292;29;20446;-78
2024/01/29 04:57:33;;;;;;;12.57;7.50;;;3.50;99.90;;;;;;4865225;29;20049;-78
2024/01/29 04:59:58;;;;;;;11.77;8.05;;;3.60;99.90;;;;;;4864992;29;20053;-78
2024/01/29 05:02:24;;;;;;;13.40;7.88;;;3.60;99.90;;;;;;4865046;29;20136;-78
2024/01/29 05:04:50;;;;;;;14.60;8.10;;;3.60;99.90;;;;;;4864737;29;20378;-78
2024/01/29 05:07:16;;;;;;;14.40;8.25;;;3.60;99.90;;;;;;4864941;29;20501;-78
2024/01/29 05:09:44;;;;;;;12.23;7.50;;;3.60;99.90;;;;;;4864970;29;20095;-78
2024/01/29 05:12:10;;;;;;;13.63;8.25;;;3.60;99.90;;;;;;4864295;29;20153;-78
2024/01/29 05:14:36;;;;;;;13.48;9.10;;;3.60;99.90;;;;;;4864495;29;20475;-78
2024/01/29 05:17:01;;;;;;;13.27;7.90;;;3.50;99.90;;;;;;4864484;29;20057;-78
2024/01/29 05:19:27;;;;;;;12.02;7.65;;;3.50;99.90;;;;;;4864556;29;20045;-78
2024/01/29 05:21:52;;;;;;;12.88;8.57;;;3.50;99.90;;;;;;4864481;29;20141;-78
2024/01/29 05:24:18;;;;;;;14.88;8.45;;;3.50;99.90;;;;;;4864482;29;20057;-78
2024/01/29 05:26:43;;;;;;;15.77;8.60;;;3.50;99.90;;;;;;4864699;29;20049;-78
2024/01/29 05:29:09;;;;;;;14.15;8.20;;;3.50;99.90;;;;;;4864286;29;20390;-78
2024/01/29 05:31:35;;;;;;;13.32;8.75;;;3.40;99.90;;;;;;4864510;29;20060;-78
2024/01/29 05:34:00;;;;;;;14.45;9.63;;;3.40;99.90;;;;;;4864536;29;20065;-78
2024/01/29 05:36:26;;;;;;;12.35;8.25;;;3.40;99.90;;;;;;4864326;29;20045;-78
2024/01/29 05:38:52;;;;;;;13.63;8.70;;;3.50;99.90;;;;;;4864496;29;20160;-78
2024/01/29 05:41:18;;;;;;;13.45;9.52;;;3.50;99.90;;;;;;4864137;29;20496;-78
2024/01/29 05:43:43;;;;;;;13.07;8.70;;;3.60;99.90;;;;;;4863343;29;20049;-78
2024/01/29 05:46:09;;;;;;;13.15;8.82;;;3.60;99.90;;;;;;4863956;29;20139;-78
2024/01/29 05:48:38;;;;;;;15.18;8.90;;;3.70;99.90;;;;;;4864225;29;20045;-79
2024/01/29 05:51:04;;;;;;;15.23;9.35;;;3.70;99.90;;;;;;4863966;29;20500;-78
2024/01/29 05:53:29;;;;;;;13.73;9.13;;;3.80;99.90;;;;;;4863967;29;20129;-79
2024/01/29 05:55:55;;;;;;;13.30;9.20;;;3.80;99.90;;;;;;4864189;29;20084;-78
2024/01/29 05:58:21;;;;;;;16.88;10.68;;;3.90;99.90;;;;;;4863737;29;20144;-78
2024/01/29 06:00:46;;;;;;;14.23;10.10;;;3.90;99.90;;;;;;4863958;29;20047;-79
2024/01/29 06:03:12;;;;;;;15.40;9.68;;;4.00;99.90;;;;;;4863938;29;20053;-78
2024/01/29 06:05:38;;;;;;;19.00;10.00;;;4.00;99.90;;;;;;4863611;29;20048;-78
2024/01/29 06:08:04;;;;;;;13.27;9.05;;;4.00;99.90;;;;;;4863570;29;20078;-78
2024/01/29 06:10:31;;;;;;;14.43;9.60;;;4.00;99.90;;;;;;4863540;29;20044;-78
2024/01/29 06:12:57;;;;;;;15.85;9.82;;;4.10;99.90;;;;;;4863498;29;20485;-78
2024/01/29 06:15:23;;;;;;;19.52;11.25;;;4.10;99.90;;;;;;4863483;29;20056;-79
2024/01/29 06:17:48;;;;;;;17.15;10.98;;;4.10;99.90;;;;;;4880153;29;20052;-79
2024/01/29 06:20:16;;;;;;;16.02;9.52;;;4.10;99.90;;;;;;4880272;29;20068;-79
2024/01/29 06:22:42;;;;;;;13.88;9.20;;;4.10;99.90;;;;;;4863566;29;20060;-79
2024/01/29 06:25:08;;;;;;;17.42;10.02;;;4.00;99.90;;;;;;4863562;29;20084;-79
2024/01/29 06:27:36;;;;;;;14.27;9.77;;;4.00;99.90;;;;;;4863366;29;20397;-79
2024/01/29 06:30:02;;;;;;;16.15;10.25;;;3.90;99.90;;;;;;4863435;29;20055;-79
2024/01/29 06:32:28;;;;;;;13.73;9.00;;;3.90;99.90;;;;;;4879858;29;20131;-79
2024/01/29 06:34:57;;;;;;;16.45;9.77;;;3.90;99.90;;;;;;4863148;29;20049;-79
2024/01/29 06:37:23;;;;;;;14.43;9.32;;;3.90;99.90;;;;;;4879973;29;20049;-78
2024/01/29 06:39:49;;;;;;;15.25;9.45;;;3.90;99.90;;;;;;4863523;29;20494;-79
2024/01/29 06:42:15;;;;;;;16.77;10.30;;;3.90;99.90;;;;;;4863169;29;20083;-78
2024/01/29 06:44:41;;;;;;;17.90;10.43;;;3.90;99.90;;;;;;4863140;29;20053;-78
2024/01/29 06:47:06;;;;;;;16.77;11.07;;;3.90;99.90;;;;;;4863243;29;20052;-79
2024/01/29 06:49:32;;;;;;;19.05;10.77;;;3.90;99.90;;;;;;4863265;29;20047;-79
2024/01/29 06:51:58;;;;;;;17.70;11.05;;;3.90;99.90;;;;;;4863214;29;20049;-78
2024/01/29 06:54:24;;;;;;;16.88;10.90;;;4.00;99.90;;;;;;4863138;29;20124;-78
2024/01/29 06:56:51;;;;;;;17.25;9.73;;;3.90;99.90;;;;;;4863251;29;20398;-79
2024/01/29 06:59:17;;;;;;;16.60;10.70;;;4.00;99.90;;;;;;4863297;29;20049;-78
2024/01/29 07:01:43;;;;;;;18.70;12.18;;;4.00;99.90;;;;;;4863287;29;20053;-78
2024/01/29 07:04:08;;;;;;;18.23;11.27;;;4.00;99.90;;;;;;4863054;29;20045;-78
2024/01/29 07:06:34;;;;;;;15.38;10.10;;;4.00;99.90;;;;;;4862982;29;20053;-78
2024/01/29 07:08:59;;;;;;;15.27;11.07;;;4.00;99.90;;;;;;4863288;29;20601;-78
2024/01/29 07:11:25;;;;;;;14.68;10.02;;;4.00;99.90;;;;;;4878658;29;20065;-78
2024/01/29 07:13:52;;;;;;;16.80;11.10;;;4.10;99.90;;;;;;4861804;29;20062;-78
2024/01/29 07:16:18;;;;;;;17.00;11.18;;;4.10;99.90;;;;;;4862847;29;20049;-78
2024/01/29 07:18:44;;;;;;;15.60;10.45;;;4.10;99.90;;;;;;4862018;29;20482;-78
2024/01/29 07:21:10;;;;;;;16.52;11.35;;;4.10;99.90;;;;;;4861519;29;20505;-78
2024/01/29 07:23:35;;;;;;;14.80;10.77;;;4.10;99.90;;;;;;4878476;29;20056;-78
2024/01/29 07:26:01;;;;;;;16.15;10.70;;;4.10;99.90;;;;;;4861681;29;20057;-79
2024/01/29 07:28:27;;;;;;;18.33;12.00;;;4.10;99.90;;;;;;4863011;29;20048;-78
2024/01/29 07:30:53;;;;;;;19.40;11.95;;;4.10;99.90;;;;;;4862909;29;20065;-78
2024/01/29 07:33:18;;;;;;;16.40;11.30;;;4.00;99.90;;;;;;4862691;29;20124;-78
2024/01/29 07:35:48;;;;;;;16.48;11.20;;;4.00;99.90;;;;;;4879504;29;20129;-79
2024/01/29 07:38:14;;;;;;;17.00;10.70;;;4.00;99.90;;;;;;4862887;29;20102;-78
2024/01/29 07:40:39;;;;;;;17.50;11.68;;;4.00;99.90;;;;;;4879229;29;20061;-79
2024/01/29 07:43:05;;;;;;;16.15;11.20;;;3.90;99.90;;;;;;4879284;29;20041;-77
2024/01/29 07:45:30;;;;;;;18.48;11.95;;;4.00;99.90;;;;;;4862493;29;20053;-78
2024/01/29 07:47:56;;;;;;;17.23;11.32;;;3.90;99.90;;;;;;4862609;29;20041;-78
2024/01/29 07:50:22;;;;;;;19.30;12.18;;;3.90;99.90;;;;;;4862662;29;20053;-87
2024/01/29 07:52:47;;;;;;;19.08;12.23;;;3.90;99.90;;;;;;4854882;29;20127;-77
2024/01/29 07:55:13;;;;;;;19.23;12.00;;;3.90;99.90;;;;;;4860476;29;20494;-78
2024/01/29 07:57:39;;;;;;;17.50;11.68;;;3.90;99.90;;;;;;4860379;29;20494;-78
2024/01/29 08:00:05;;;;;;;21.95;13.93;;;3.90;99.90;;;;;;4844042;29;20493;-77
2024/01/29 08:02:31;;;;;;;21.58;12.20;;;4.00;99.90;;;;;;4844017;29;20092;-78
2024/01/29 08:04:56;;;;;;;21.13;12.25;;;4.00;99.90;;;;;;4843647;29;20089;-79
2024/01/29 08:07:22;;;;;;;20.00;12.82;;;4.00;99.90;;;;;;4845262;29;20105;-77
2024/01/29 08:09:48;;;;;;;18.20;12.77;;;4.00;99.90;;;;;;4847063;29;20105;-78
2024/01/29 08:12:14;;;;;;;18.98;12.18;;;4.00;99.90;;;;;;4863247;29;20053;-77
2024/01/29 08:14:40;;;;;;;19.30;12.02;;;4.00;99.90;;;;;;4846746;29;20064;-77
2024/01/29 08:17:06;;;;;;;17.58;12.13;;;4.00;99.90;;;;;;4846939;29;20058;-77
2024/01/29 08:19:32;;;;;;;19.85;11.65;;;4.00;99.90;;;;;;4847096;29;20049;-77
2024/01/29 08:21:57;;;;;;;18.23;12.00;;;4.00;99.90;;;;;;4846851;29;20458;-79
2024/01/29 08:24:23;;;;;;;19.58;13.18;;;4.00;99.90;;;;;;4846654;29;20057;-79
2024/01/29 08:26:49;;;;;;;20.88;13.10;;;4.10;99.90;;;;;;4847071;29;20117;-89
2024/01/29 08:29:14;;;;;;;20.27;12.80;;;4.10;99.90;;;;;;4846683;29;20045;-80
2024/01/29 08:31:40;;;;;;;20.48;12.13;;;4.10;99.90;;;;;;4846962;29;20080;-87
2024/01/29 08:34:06;;;;;;;18.80;13.27;;;4.10;99.90;;;;;;4846776;29;20494;-79
2024/01/29 08:36:31;;;;;;;18.42;11.55;;;4.10;99.90;;;;;;4863397;29;20053;-82
2024/01/29 08:38:57;;;;;;;18.30;11.95;;;4.10;99.90;;;;;;4846978;29;20401;-84
2024/01/29 08:41:23;;;;;;;18.90;11.77;;;4.10;99.90;;;;;;4848004;29;20488;-79
2024/01/29 08:43:48;;;;;;;19.73;12.25;;;4.10;99.90;;;;;;4846414;29;20046;-77
2024/01/29 08:46:14;;;;;;;19.35;12.88;;;4.10;99.90;;;;;;4863124;29;20057;-79
2024/01/29 08:48:40;;;;;;;19.80;12.15;;;4.20;99.90;;;;;;4863160;29;20084;-79
2024/01/29 08:51:05;;;;;;;20.17;12.35;;;4.20;99.90;;;;;;4846629;29;20454;-79
2024/01/29 08:53:31;;;;;;;18.90;12.75;;;4.20;99.90;;;;;;4846040;29;20443;-79
2024/01/29 08:55:57;;;;;;;20.75;13.55;;;4.30;99.90;;;;;;4864513;29;20099;-79
2024/01/29 08:58:23;;;;;;;18.98;12.50;;;4.20;99.90;;;;;;4881561;29;20057;-79
2024/01/29 09:00:52;;;;;;;18.42;12.70;;;4.20;99.90;;;;;;4864912;29;20081;-79
2024/01/29 09:03:18;;;;;;;19.58;12.32;;;4.20;99.90;;;;;;4864786;29;20132;-79
2024/01/29 09:05:44;;;;;;;18.77;12.73;;;4.30;99.90;;;;;;4864337;29;20576;-79
2024/01/29 09:08:09;;;;;;;21.27;13.40;;;4.30;99.90;;;;;;4895660;29;20076;-79
2024/01/29 09:10:35;;;;;;;18.25;12.60;;;4.30;99.90;;;;;;4864361;29;20088;-79
2024/01/29 09:13:02;;;;;;;18.63;12.93;;;4.30;99.90;;;;;;4865634;29;20061;-79
2024/01/29 09:15:28;;;;;;;17.15;12.50;;;4.40;99.90;;;;;;4883069;29;20139;-79
2024/01/29 09:17:53;;;;;;;18.92;13.05;;;4.40;99.90;;;;;;4880006;29;20139;-79
2024/01/29 09:20:19;;;;;;;18.25;12.57;;;4.50;99.90;;;;;;4863380;29;20533;-79
2024/01/29 09:22:44;;;;;;;20.38;12.57;;;4.50;99.90;;;;;;4863802;29;20057;-79
2024/01/29 09:25:10;;;;;;;18.63;12.82;;;4.60;99.90;;;;;;4863843;29;20045;-79
2024/01/29 09:27:36;;;;;;;21.50;13.02;;;4.60;99.90;;;;;;4864203;29;20041;-79
2024/01/29 09:30:04;;;;;;;20.85;14.18;;;4.60;99.90;;;;;;4864355;29;20100;-79
2024/01/29 09:32:30;;;;;;;19.48;13.60;;;4.60;99.90;;;;;;4863889;29;20088;-79
2024/01/29 09:34:55;;;;;;;17.42;12.10;;;4.70;99.90;;;;;;4864130;29;20057;-83
2024/01/29 09:37:21;;;;;;;20.80;14.07;;;4.70;99.90;;;;;;4863818;29;20045;-79
2024/01/29 09:39:47;;;;;;;19.15;13.63;;;4.80;99.90;;;;;;4863906;29;20053;-79
2024/01/29 09:42:24;;;;;;;19.95;13.40;;;4.90;99.90;;;;;;4864181;29;20048;-79
2024/01/29 09:44:53;;;;;;;19.20;12.25;;;4.90;99.90;;;;;;4863867;29;20509;-79
2024/01/29 09:47:20;;;;;;;23.58;14.18;;;4.90;99.90;;;;;;4864041;29;20561;-79
2024/01/29 09:49:46;;;;;;;20.17;13.68;;;5.00;99.90;;;;;;4864073;29;20045;-79
2024/01/29 09:52:13;;;;;;;21.13;14.02;;;5.00;99.90;;;;;;4863871;29;20413;-79
2024/01/29 09:54:41;;;;;;;22.15;14.20;;;5.10;99.90;;;;;;4863870;29;20183;-78
2024/01/29 09:57:12;;;;;;;20.92;14.43;;;5.20;99.90;;;;;;4880333;29;20156;-79
2024/01/29 09:59:41;;;;;;;21.10;15.18;;;5.30;99.90;;;;;;4863744;29;20060;-78
2024/01/29 10:02:09;;;;;;;21.90;14.43;;;5.30;99.90;;;;;;4863849;29;20057;-78
2024/01/29 10:04:35;;;;;;;24.20;14.43;;;5.30;99.90;;;;;;4863340;29;20044;-78
2024/01/29 10:07:01;;;;;;;21.23;13.00;;;5.40;99.90;;;;;;4863477;29;20053;-78
2024/01/29 10:09:28;;;;;;;20.15;13.88;;;5.40;99.90;;;;;;4863495;29;20045;-80
2024/01/29 10:11:53;;;;;;;20.33;13.10;;;5.40;99.90;;;;;;4863361;29;20101;-80
2024/01/29 10:14:20;;;;;;;22.85;14.27;;;5.40;99.90;;;;;;4879869;29;20099;-79
2024/01/29 10:16:48;;;;;;;22.63;14.15;;;5.50;99.90;;;;;;4862964;29;20064;-79
2024/01/29 10:19:14;;;;;;;22.67;14.75;;;5.50;99.90;;;;;;4880214;29;20074;-78
2024/01/29 10:21:42;;;;;;;20.73;14.25;;;5.50;99.90;;;;;;4879481;29;20053;-79
2024/01/29 10:24:17;;;;;;;23.40;14.27;;;5.60;99.90;;;;;;4863331;29;20052;-79
2024/01/29 10:26:44;;;;;;;21.95;14.38;;;5.60;99.90;;;;;;4863135;29;20049;-79
2024/01/29 10:29:11;;;;;;;22.00;13.90;;;5.60;99.90;;;;;;4862039;29;20060;-79
2024/01/29 10:31:37;;;;;;;19.80;13.35;;;5.60;99.90;;;;;;4863101;29;20140;-79
2024/01/29 10:34:04;;;;;;;21.63;15.65;;;5.70;99.90;;;;;;4863399;29;20049;-80
2024/01/29 10:36:29;;;;;;;21.98;14.15;;;5.70;99.90;;;;;;4863255;29;20053;-80
2024/01/29 10:38:58;;;;;;;22.15;13.75;;;5.70;99.90;;;;;;4863284;29;20371;-80
2024/01/29 10:41:25;;;;;;;22.65;13.85;;;5.80;99.90;;;;;;4862902;29;20068;-80
2024/01/29 10:43:51;;;;;;;22.65;13.57;;;5.80;99.90;;;;;;4862828;29;20124;-79
2024/01/29 10:46:20;;;;;;;22.05;14.93;;;5.80;99.90;;;;;;4862893;29;20081;-79
2024/01/29 10:48:50;;;;;;;27.00;16.60;;;5.90;99.90;;;;;;4862914;29;20053;-80
2024/01/29 10:51:17;;;;;;;21.40;15.68;;;5.90;99.90;;;;;;4878368;29;20096;-80
2024/01/29 10:53:44;;;;;;;20.23;14.38;;;5.90;99.90;;;;;;4862815;29;20497;-80
2024/01/29 10:56:11;;;;;;;21.42;14.43;;;5.90;99.90;;;;;;4862843;29;20053;-79
2024/01/29 10:58:38;;;;;;;22.80;15.25;;;6.00;99.90;;;;;;4862672;29;20068;-79
2024/01/29 11:01:09;;;;;;;21.45;14.60;;;6.00;99.90;;;;;;4862786;29;20136;-86
2024/01/29 11:03:36;;;;;;;21.63;14.80;;;6.00;99.90;;;;;;4862899;29;20057;-78
2024/01/29 11:06:23;;;;;;;21.50;15.27;;;6.10;99.90;;;;;;4862710;29;20101;-79
2024/01/29 11:08:55;;;;;;;21.35;14.30;;;6.10;99.90;;;;;;4862786;29;20052;-80
2024/01/29 11:11:23;;;;;;;22.90;14.85;;;6.10;99.90;;;;;;4862779;29;20128;-79
2024/01/29 11:13:52;;;;;;;22.77;15.80;;;6.20;99.90;;;;;;4862401;29;20053;-83
2024/01/29 11:16:17;;;;;;;23.85;15.73;;;6.20;99.90;;;;;;4862629;29;20064;-78
2024/01/29 11:18:43;;;;;;;23.80;15.98;;;6.20;99.90;;;;;;4862629;29;20057;-78
2024/01/29 11:21:10;;;;;;;28.85;17.42;;;6.20;99.90;;;;;;4862651;29;20132;-81
2024/01/29 11:23:47;;;;;;;26.08;15.77;;;6.30;99.90;;;;;;4863284;29;20079;-80
2024/01/29 11:26:17;;;;;;;26.02;16.13;;;6.30;99.90;;;;;;4879471;29;20045;-79
2024/01/29 11:28:43;;;;;;;26.58;16.02;;;6.30;99.90;;;;;;4879483;29;20053;-80
2024/01/29 11:31:11;;;;;;;44.50;17.05;;;6.30;99.90;;;;;;4879224;29;20059;-77
2024/01/29 11:33:36;;;;;;;26.98;17.30;;;6.40;99.90;;;;;;4862480;29;20041;-78
2024/01/29 11:36:10;;;;;;;27.80;16.48;;;6.40;99.90;;;;;;4862548;29;20052;-78
2024/01/29 11:38:36;;;;;;;31.42;16.33;;;6.50;99.90;;;;;;4862726;29;20136;-80
2024/01/29 11:41:02;;;;;;;32.58;16.45;;;6.50;99.90;;;;;;4862473;29;20132;-79
2024/01/29 11:43:28;;;;;;;27.85;17.65;;;6.50;99.90;;;;;;4865455;29;20053;-79
2024/01/29 11:45:54;;;;;;;33.60;17.85;;;6.50;99.90;;;;;;4875398;29;20060;-78
2024/01/29 11:48:21;;;;;;;31.23;16.98;;;6.60;99.90;;;;;;4864793;29;20049;-78
2024/01/29 11:50:56;;;;;;;34.58;18.05;;;6.60;99.90;;;;;;4864758;29;20072;-78
2024/01/29 11:53:26;;;;;;;37.97;17.65;;;6.60;99.90;;;;;;4864279;29;20068;-78
2024/01/29 11:55:53;;;;;;;36.45;18.20;;;6.60;99.90;;;;;;4864945;29;20127;-79
2024/01/29 11:58:20;;;;;;;34.78;18.08;;;6.70;99.90;;;;;;4885829;29;20067;-78
2024/01/29 12:00:48;;;;;;;38.78;19.45;;;6.70;99.90;;;;;;4868823;29;20412;-79
2024/01/29 12:03:22;;;;;;;35.50;17.50;;;6.70;99.90;;;;;;4876053;29;20053;-79
2024/01/29 12:05:48;;;;;;;33.65;18.35;;;6.70;99.90;;;;;;4879557;29;20057;-79
2024/01/29 12:08:19;;;;;;;34.13;18.40;;;6.80;99.90;;;;;;4863927;29;20132;-79
2024/01/29 12:10:46;;;;;;;39.80;18.80;;;6.80;99.90;;;;;;4868992;29;20095;-79
2024/01/29 12:13:19;;;;;;;34.13;19.15;;;6.80;99.90;;;;;;4863665;29;20053;-79
2024/01/29 12:15:47;;;;;;;30.45;18.00;;;6.70;99.90;;;;;;4871784;29;20049;-79
2024/01/29 12:18:26;;;;;;;34.17;18.98;;;6.80;99.90;;;;;;4862588;29;20041;-78
2024/01/29 12:20:53;;;;;;;38.38;19.05;;;6.70;99.90;;;;;;4883789;29;20052;-79
2024/01/29 12:23:22;;;;;;;38.90;18.00;;;6.80;99.90;;;;;;4900557;29;20088;-79
2024/01/29 12:25:53;;;;;;;38.15;18.85;;;6.80;99.90;;;;;;4900792;29;20162;-80
2024/01/29 12:28:19;;;;;;;38.30;19.65;;;6.70;99.90;;;;;;4878878;29;20144;-79
2024/01/29 12:30:53;;;;;;;47.92;20.27;;;6.80;99.90;;;;;;4896070;29;20492;-79
2024/01/29 12:33:24;;;;;;;41.15;19.80;;;6.80;99.90;;;;;;4896194;29;20439;-79
2024/01/29 12:35:49;;;;;;;40.35;19.27;;;6.80;99.90;;;;;;4881928;29;20446;-79
2024/01/29 12:38:17;;;;;;;44.88;18.75;;;6.80;99.90;;;;;;4881671;29;20569;-79
2024/01/29 12:40:43;;;;;;;44.67;19.73;;;6.80;99.90;;;;;;4882022;29;20060;-79